Time;durP1;ratioP1;P1;durP2;ratioP2;P2;SDS_P1;SDS_P2;PMS_P1;PMS_P2;Temp;Humidity;BMP_temperature;BMP_pressure;BME280_temperature;BME280_humidity;BME280_pressure;Samples;Min_cycle;Max_cycle;Signal;HPM_P1;HPM_P2
2022/12/23 00:01:12;;;;;;;28.77;12.07;;;;;;;-0.37;93.97;96902.47;4987902;28;20171;-53
2022/12/23 00:03:39;;;;;;;22.58;8.90;;;;;;;-0.29;94.54;96904.47;4988875;28;20054;-53
2022/12/23 00:06:09;;;;;;;27.02;11.65;;;;;;;-0.75;94.06;96833.09;4799929;28;5001349;-61
2022/12/23 00:08:36;;;;;;;20.27;8.15;;;;;;;-0.33;93.90;96898.00;5007738;28;20566;-53
2022/12/23 00:11:05;;;;;;;28.13;10.07;;;;;;;-0.35;93.93;96892.88;5007439;28;20049;-61
2022/12/23 00:16:17;;;;;;;27.05;11.68;;;;;;;-0.52;94.57;96867.44;5007319;28;20079;-61
2022/12/23 00:18:43;;;;;;;73.63;24.15;;;;;;;-0.78;93.82;96912.53;5005977;28;20060;-59
2022/12/23 00:21:13;;;;;;;50.00;20.15;;;;;;;-0.44;93.29;96883.00;5005322;28;20516;-60
2022/12/23 00:23:42;;;;;;;36.70;16.38;;;;;;;-0.42;93.82;96895.22;5007540;28;20108;-55
2022/12/23 00:26:15;;;;;;;39.70;16.67;;;;;;;-0.69;93.55;96867.22;5005197;28;20084;-53
2022/12/23 00:28:42;;;;;;;47.00;18.85;;;;;;;-0.72;93.78;96843.34;5006924;28;20081;-52
2022/12/23 00:31:09;;;;;;;37.70;16.75;;;;;;;-0.25;93.93;96900.00;5007309;28;20050;-53
2022/12/23 00:33:39;;;;;;;47.88;23.98;;;;;;;-0.26;93.26;96882.09;5005510;28;20494;-60
2022/12/23 00:36:16;;;;;;;41.92;21.30;;;;;;;-0.11;92.60;96879.84;4987842;28;20156;-61
2022/12/23 00:44:15;;;;;;;49.97;21.55;;;;;;;0.00;93.38;96869.53;4987274;28;20060;-60
2022/12/23 00:46:41;;;;;;;35.13;16.25;;;;;;;0.06;93.16;96884.63;4987360;28;20113;-60
2022/12/23 00:51:58;;;;;;;27.15;11.77;;;;;;;-0.28;92.48;96803.47;4987064;28;20050;-60
2022/12/23 00:54:24;;;;;;;24.38;11.05;;;;;;;0.11;92.45;96865.47;4987169;28;20085;-53
2022/12/23 00:56:51;;;;;;;41.40;16.67;;;;;;;0.12;92.52;96864.34;4985592;28;20069;-54
2022/12/23 00:59:18;;;;;;;23.23;11.50;;;;;;;0.08;92.34;96870.72;4971908;28;20109;-53
2022/12/23 01:07:16;;;;;;;33.72;13.68;;;;;;;-0.51;92.53;96782.00;4987133;28;20134;-53
2022/12/23 01:09:43;;;;;;;32.55;14.63;;;;;;;-0.14;92.71;96853.22;4984624;28;20057;-59
2022/12/23 01:12:09;;;;;;;21.50;11.13;;;;;;;-0.25;92.93;96834.69;4986779;28;20133;-60
2022/12/23 01:14:36;;;;;;;48.13;27.33;;;;;;;0.16;93.21;96862.59;4986346;28;20569;-53
2022/12/23 01:17:05;;;;;;;29.10;14.27;;;;;;;0.12;93.24;96867.06;4986714;28;20050;-60
2022/12/23 01:19:32;;;;;;;20.13;10.07;;;;;;;0.13;91.89;96857.78;4985531;28;20141;-60
2022/12/23 01:21:59;;;;;;;23.55;9.30;;;;;;;-0.26;92.08;96798.53;4986789;28;20418;-60
2022/12/23 01:24:30;;;;;;;22.30;9.70;;;;;;;0.18;91.63;96852.22;4985241;28;20441;-60
2022/12/23 01:26:57;;;;;;;22.00;10.02;;;;;;;0.16;92.38;96862.59;4985107;28;20050;-52
2022/12/23 01:29:24;;;;;;;21.25;10.15;;;;;;;-0.36;92.15;96778.91;5005248;28;20054;-60
2022/12/23 01:31:51;;;;;;;23.88;11.18;;;;;;;0.13;91.87;96852.31;5005778;28;20058;-60
2022/12/23 01:34:17;;;;;;;24.85;9.40;;;;;;;0.02;92.46;96850.97;5006100;28;20062;-53
2022/12/23 01:36:44;;;;;;;26.75;11.65;;;;;;;-0.25;92.51;96813.75;5004646;28;20053;-59
2022/12/23 01:39:11;;;;;;;21.60;9.80;;;;;;;0.22;90.87;96845.06;5005981;28;20070;-61
2022/12/23 01:44:56;;;;;;;17.52;7.22;;;;;;;0.03;92.18;96837.03;5005915;28;20062;-53
2022/12/23 01:47:32;;;;;;;14.90;6.25;;;;;;;0.00;92.23;96842.31;5004372;28;20107;-61
2022/12/23 01:50:05;;;;;;;21.27;8.35;;;;;;;-0.02;92.47;96844.53;4996728;28;20433;-53
2022/12/23 01:52:36;;;;;;;20.77;8.43;;;;;;;0.02;92.59;96845.50;4986220;28;20049;-52
2022/12/23 01:55:03;;;;;;;19.33;8.32;;;;;;;-0.37;92.24;96782.75;4985777;28;20089;-53
2022/12/23 01:57:30;;;;;;;23.23;9.45;;;;;;;-0.02;92.66;96844.53;4986123;28;20114;-53
2022/12/23 02:05:47;;;;;;;19.48;8.00;;;;;;;-0.06;91.88;96833.44;4968969;28;20059;-54
2022/12/23 02:11:11;;;;;;;20.15;7.30;;;;;;;-0.72;92.44;96764.50;4985723;28;20516;-55
2022/12/23 02:16:53;;;;;;;19.23;7.47;;;;;;;-0.38;93.69;96808.34;5005090;28;20141;-60
2022/12/23 02:19:44;;;;;;;17.83;7.30;;;;;;;-0.26;93.08;96827.66;4996599;28;20440;-54
2022/12/23 02:22:31;;;;;;;19.70;9.40;;;;;;;-0.69;94.03;96753.00;4983335;28;20505;-52
2022/12/23 02:24:57;;;;;;;26.23;11.18;;;;;;;0.00;92.81;96828.72;4985695;28;20072;-60
2022/12/23 02:27:26;;;;;;;24.38;10.98;;;;;;;-0.41;92.11;96770.88;4985554;28;20106;-53
2022/12/23 02:30:27;;;;;;;20.55;9.77;;;;;;;0.05;91.94;96817.66;4985704;28;20110;-52
2022/12/23 02:33:01;;;;;;;21.30;10.13;;;;;;;0.04;92.06;96824.25;4985393;28;20054;-61
2022/12/23 02:36:03;;;;;;;23.27;10.02;;;;;;;0.12;91.47;96818.06;4983988;28;20090;-60
2022/12/23 02:39:13;;;;;;;20.35;8.98;;;;;;;0.10;91.95;96814.00;4985126;28;20644;-52
2022/12/23 02:41:57;;;;;;;18.45;7.65;;;;;;;0.16;91.07;96819.03;4984307;28;20499;-54
2022/12/23 02:44:59;;;;;;;18.73;7.93;;;;;;;0.20;91.69;96814.59;4985513;28;20085;-61
2022/12/23 02:47:38;;;;;;;21.20;9.68;;;;;;;0.00;92.13;96796.03;4981368;28;20267;-60
2022/12/23 02:50:10;;;;;;;18.10;10.10;;;;;;;0.14;91.46;96799.50;4991087;28;20144;-60
2022/12/23 02:52:40;;;;;;;21.30;8.27;;;;;;;-0.29;92.13;96725.69;5005050;28;20140;-54
2022/12/23 02:55:15;;;;;;;25.30;8.60;;;;;;;-0.14;91.64;96754.44;5004447;28;20065;-53
2022/12/23 02:57:45;;;;;;;16.70;7.65;;;;;;;0.25;92.16;96825.38;5004975;28;20520;-60
2022/12/23 03:00:14;;;;;;;23.35;10.10;;;;;;;0.24;91.17;96810.13;5003414;28;20143;-60
2022/12/23 03:02:42;;;;;;;22.02;8.73;;;;;;;0.15;90.01;96765.69;5004781;28;20099;-61
2022/12/23 03:05:31;;;;;;;21.30;8.80;;;;;;;0.34;89.66;96795.44;5004553;28;20572;-60
2022/12/23 03:08:02;;;;;;;31.25;10.48;;;;;;;0.31;89.21;96788.72;5004846;28;20053;-53
2022/12/23 03:11:03;;;;;;;27.08;9.48;;;;;;;0.37;89.58;96801.09;5003461;28;20132;-60
2022/12/23 03:14:07;;;;;;;26.45;9.90;;;;;;;0.26;89.74;96791.56;5004473;28;20058;-60
2022/12/23 03:17:12;;;;;;;23.95;10.00;;;;;;;0.29;90.43;96780.03;5004105;28;20050;-61
2022/12/23 03:19:50;;;;;;;24.70;9.77;;;;;;;0.36;89.86;96785.88;5002617;28;20058;-55
2022/12/23 03:22:25;;;;;;;28.38;11.55;;;;;;;0.38;89.71;96780.88;5003088;28;20549;-53
2022/12/23 03:24:59;;;;;;;57.90;21.33;;;;;;;0.39;89.75;96778.97;5004458;28;20112;-55
2022/12/23 03:27:39;;;;;;;37.55;16.63;;;;;;;0.39;88.87;96789.88;5002988;28;20134;-53
2022/12/23 03:30:28;;;;;;;39.35;16.52;;;;;;;0.21;89.61;96788.97;5004634;28;20416;-61
2022/12/23 03:33:00;;;;;;;38.53;14.65;;;;;;;0.28;89.66;96789.34;5006547;28;20111;-60
2022/12/23 03:35:35;;;;;;;47.60;16.88;;;;;;;0.23;90.57;96800.34;5008210;28;20058;-53
2022/12/23 03:38:03;;;;;;;31.67;13.38;;;;;;;0.11;91.77;96786.50;5006706;28;20046;-55
2022/12/23 03:40:40;;;;;;;30.40;11.73;;;;;;;-0.12;92.37;96746.78;5007533;28;20042;-61
2022/12/23 03:43:17;;;;;;;23.27;10.00;;;;;;;0.09;92.74;96769.66;5008229;28;20143;-60
2022/12/23 03:45:50;;;;;;;26.25;9.90;;;;;;;0.12;92.86;96798.19;5007892;28;20133;-53
2022/12/23 03:48:37;;;;;;;25.35;9.43;;;;;;;-0.72;93.27;96650.31;5008062;28;20100;-53
2022/12/23 03:51:12;;;;;;;42.55;17.23;;;;;;;0.10;94.24;96798.50;4994133;28;20084;-57
2022/12/23 03:53:46;;;;;;;38.58;16.65;;;;;;;0.18;94.26;96794.22;4988494;28;20081;-55
2022/12/23 03:56:17;;;;;;;44.42;19.85;;;;;;;0.16;94.88;96804.63;4988429;28;20485;-52
2022/12/23 03:58:56;;;;;;;46.75;24.58;;;;;;;-0.19;94.15;96730.09;4988183;28;20126;-60
2022/12/23 04:01:49;;;;;;;60.60;31.77;;;;;;;0.17;94.30;96798.88;4988043;28;20054;-54
2022/12/23 04:04:28;;;;;;;49.08;25.20;;;;;;;0.22;93.38;96779.69;4988174;28;20062;-60
2022/12/23 04:06:59;;;;;;;43.38;19.10;;;;;;;-0.20;92.42;96715.66;4987918;28;20054;-60
2022/12/23 04:09:27;;;;;;;39.38;15.55;;;;;;;0.18;92.04;96800.47;4988130;28;20050;-60
2022/12/23 04:11:57;;;;;;;39.47;15.65;;;;;;;0.16;92.84;96802.69;4987945;28;20054;-61
2022/12/23 04:14:23;;;;;;;33.72;13.25;;;;;;;0.21;92.42;96799.03;4987928;28;20473;-60
2022/12/23 04:16:54;;;;;;;31.67;12.52;;;;;;;0.34;91.71;96787.28;4987801;28;20058;-54
2022/12/23 04:19:21;;;;;;;35.75;16.13;;;;;;;0.38;91.55;96789.06;4988000;28;20104;-61
2022/12/23 04:21:47;;;;;;;28.38;12.32;;;;;;;0.38;91.93;96783.63;4987683;28;20552;-61
2022/12/23 04:24:14;;;;;;;36.58;14.98;;;;;;;0.43;90.32;96783.50;4988016;28;20050;-53
2022/12/23 04:26:41;;;;;;;30.15;11.95;;;;;;;0.38;89.91;96778.16;4987767;28;20081;-52
2022/12/23 04:29:07;;;;;;;23.17;9.95;;;;;;;0.23;90.56;96748.63;4987484;28;20094;-61
2022/12/23 04:31:34;;;;;;;17.70;7.18;;;;;;;0.36;90.61;96780.41;4985986;28;20429;-53
2022/12/23 04:34:00;;;;;;;19.50;7.57;;;;;;;-0.21;90.87;96677.88;4987703;28;20157;-52
2022/12/23 04:36:27;;;;;;;14.00;6.22;;;;;;;0.18;91.66;96748.75;4987497;28;20062;-53
2022/12/23 04:38:54;;;;;;;20.70;8.30;;;;;;;0.00;90.68;96719.81;4986105;28;20108;-60
2022/12/23 04:41:20;;;;;;;21.02;8.73;;;;;;;0.40;91.05;96775.94;4986915;28;20062;-53
2022/12/23 04:43:47;;;;;;;21.70;9.25;;;;;;;0.43;91.64;96772.59;4984918;28;20528;-61
2022/12/23 04:46:19;;;;;;;24.23;10.40;;;;;;;0.45;91.44;96784.00;4987050;28;20053;-53
2022/12/23 04:48:46;;;;;;;25.52;11.30;;;;;;;0.43;91.60;96780.75;4987573;28;20421;-60
2022/12/23 04:51:12;;;;;;;30.08;13.30;;;;;;;0.53;91.21;96788.69;5002028;28;20057;-56
2022/12/23 04:53:39;;;;;;;31.52;11.98;;;;;;;0.23;89.68;96721.38;5007108;28;20445;-60
2022/12/23 04:56:06;;;;;;;39.75;15.85;;;;;;;0.45;90.66;96773.09;5005217;28;20077;-61
2022/12/23 04:58:32;;;;;;;40.72;19.83;;;;;;;0.53;90.49;96774.25;5006659;28;20073;-52
2022/12/23 05:01:04;;;;;;;53.33;23.70;;;;;;;0.51;89.88;96856.28;5006626;28;20497;-60
2022/12/23 05:03:31;;;;;;;57.05;23.63;;;;;;;0.37;90.40;96776.56;5006692;28;20058;-52
2022/12/23 05:05:58;;;;;;;52.67;22.25;;;;;;;0.12;89.86;96725.47;5006344;28;20064;-59
2022/12/23 05:08:25;;;;;;;49.92;22.10;;;;;;;0.45;90.86;96792.16;5004702;28;20054;-52
2022/12/23 05:10:51;;;;;;;47.33;20.85;;;;;;;0.44;91.49;96798.75;5006316;28;20073;-55
2022/12/23 05:13:18;;;;;;;48.83;21.00;;;;;;;0.21;92.09;96761.72;5006366;28;20496;-61
2022/12/23 05:15:47;;;;;;;41.25;18.90;;;;;;;0.53;91.55;96802.31;5005915;28;20133;-59
2022/12/23 05:18:15;;;;;;;47.70;20.35;;;;;;;0.48;91.76;96805.16;5004374;28;20112;-60
2022/12/23 05:20:41;;;;;;;58.20;24.38;;;;;;;0.54;92.47;96782.09;5005871;28;20078;-60
2022/12/23 05:23:08;;;;;;;41.65;20.15;;;;;;;0.44;92.07;96760.59;5006274;28;20149;-53
2022/12/23 05:25:36;;;;;;;64.50;27.55;;;;;;;0.43;92.38;96764.41;5005918;28;20054;-53
2022/12/23 05:28:04;;;;;;;84.10;36.92;;;;;;;0.43;92.37;96775.31;5005991;28;20505;-53
2022/12/23 05:30:31;;;;;;;79.53;33.45;;;;;;;0.49;91.40;96773.28;5005699;28;20089;-51
2022/12/23 05:32:58;;;;;;;98.45;49.88;;;;;;;-0.22;90.77;96654.50;5006049;28;20133;-59
2022/12/23 05:35:25;;;;;;;83.10;42.25;;;;;;;0.59;90.46;96800.25;5005765;28;20046;-60
2022/12/23 05:37:52;;;;;;;78.13;38.50;;;;;;;0.58;91.69;96804.91;5005584;28;20057;-60
2022/12/23 05:40:19;;;;;;;74.80;35.90;;;;;;;0.08;91.74;96734.59;5006229;28;20077;-52
2022/12/23 05:42:54;;;;;;;65.03;31.85;;;;;;;0.69;90.72;96811.69;5005670;28;20060;-52
2022/12/23 05:45:21;;;;;;;65.03;30.65;;;;;;;0.62;90.76;96805.88;5005779;28;20077;-53
2022/12/23 05:47:48;;;;;;;70.65;31.77;;;;;;;0.64;91.06;96811.81;4996187;28;20082;-53
2022/12/23 05:50:15;;;;;;;81.18;35.28;;;;;;;0.59;91.12;96794.78;4990190;28;20049;-60
2022/12/23 05:52:41;;;;;;;78.50;34.03;;;;;;;0.72;90.61;96818.44;5005940;28;20050;-60
2022/12/23 05:55:08;;;;;;;86.80;37.35;;;;;;;0.76;90.25;96805.81;5003922;28;20479;-52
2022/12/23 05:57:35;;;;;;;84.80;33.90;;;;;;;0.75;90.22;96815.88;5005513;28;20061;-59
2022/12/23 06:00:02;;;;;;;74.53;30.70;;;;;;;0.73;89.61;96817.31;5004545;28;20890;-61
2022/12/23 06:02:29;;;;;;;46.53;17.77;;;;;;;0.27;90.07;96760.47;5005081;28;20199;-60
2022/12/23 06:04:56;;;;;;;33.55;14.77;;;;;;;0.54;90.94;96814.81;4997254;28;20050;-60
2022/12/23 06:07:23;;;;;;;24.45;9.55;;;;;;;0.60;90.90;96810.81;5003949;28;20053;-53
2022/12/23 06:09:49;;;;;;;22.95;9.18;;;;;;;0.58;90.66;96798.66;5004771;28;20091;-52
2022/12/23 06:12:16;;;;;;;44.08;17.33;;;;;;;0.71;90.01;96819.56;4998496;28;20133;-56
2022/12/23 06:14:43;;;;;;;52.78;20.58;;;;;;;0.55;89.63;96767.38;4986031;28;20062;-53
2022/12/23 06:17:09;;;;;;;52.10;24.35;;;;;;;0.63;89.90;96801.25;4985812;28;20116;-55
2022/12/23 06:19:36;;;;;;;35.58;17.70;;;;;;;0.82;89.10;96815.44;4985036;28;20098;-53
2022/12/23 06:22:02;;;;;;;78.32;30.58;;;;;;;0.21;89.08;96710.00;4989074;28;20115;-60
2022/12/23 06:24:29;;;;;;;57.97;26.10;;;;;;;0.86;89.44;96811.78;5004748;28;20096;-52
2022/12/23 06:26:56;;;;;;;75.30;28.67;;;;;;;0.35;89.08;96732.50;5003226;28;20590;-54
2022/12/23 06:29:23;;;;;;;48.60;22.35;;;;;;;0.86;89.28;96811.78;5003431;28;20064;-60
2022/12/23 06:31:50;;;;;;;65.63;26.13;;;;;;;0.58;88.25;96780.38;5004783;28;20061;-54
2022/12/23 06:34:17;;;;;;;69.55;27.38;;;;;;;-0.07;88.96;96700.38;5004857;28;20061;-60
2022/12/23 06:36:43;;;;;;;62.40;30.63;;;;;;;0.76;88.76;96822.94;5003223;28;20520;-53
2022/12/23 06:39:10;;;;;;;85.25;31.92;;;;;;;0.72;87.72;96804.81;5004871;28;20120;-59
2022/12/23 06:41:37;;;;;;;62.20;26.95;;;;;;;0.34;88.08;96741.78;5002923;28;20057;-53
2022/12/23 06:44:04;;;;;;;68.63;29.08;;;;;;;0.84;87.94;96835.81;5004901;28;20049;-55
2022/12/23 06:46:30;;;;;;;66.63;29.48;;;;;;;0.85;88.27;96825.72;5004444;28;20069;-54
2022/12/23 06:48:57;;;;;;;58.17;32.25;;;;;;;0.80;88.53;96823.94;5006129;28;20571;-53
2022/12/23 06:51:24;;;;;;;73.85;34.92;;;;;;;0.87;88.43;96823.50;4992505;28;20046;-53
2022/12/23 06:53:50;;;;;;;66.18;34.08;;;;;;;0.55;87.98;96753.75;4984989;28;20082;-53
2022/12/23 06:56:17;;;;;;;71.68;34.38;;;;;;;0.91;87.59;96811.63;4988144;28;20053;-60
2022/12/23 06:58:44;;;;;;;75.30;37.13;;;;;;;0.88;88.08;96804.09;5004604;28;20147;-54
2022/12/23 07:01:11;;;;;;;77.30;39.78;;;;;;;0.91;88.63;96825.28;4991535;28;20132;-54
2022/12/23 07:03:37;;;;;;;80.72;39.38;;;;;;;1.11;88.30;96832.06;4993589;28;20484;-54
2022/12/23 07:06:04;;;;;;;85.75;45.33;;;;;;;1.14;88.84;96831.44;4985415;28;20141;-63
2022/12/23 07:08:31;;;;;;;117.82;57.83;;;;;;;1.24;88.74;96823.78;5003033;28;20045;-54
2022/12/23 07:11:02;;;;;;;143.85;66.65;;;;;;;1.42;88.07;96830.91;5000170;28;20536;-55
2022/12/23 07:13:29;;;;;;;134.93;64.43;;;;;;;1.56;86.03;96822.59;4984250;28;20056;-55
2022/12/23 07:15:56;;;;;;;139.48;63.65;;;;;;;1.83;85.24;96818.78;4984413;28;20046;-63
2022/12/23 07:18:24;;;;;;;112.10;51.55;;;;;;;1.96;84.89;96831.50;4991640;28;20127;-53
2022/12/23 07:20:51;;;;;;;186.70;72.47;;;;;;;2.24;85.00;96830.03;4996182;28;20050;-65
2022/12/23 07:23:18;;;;;;;184.30;70.25;;;;;;;1.57;83.54;96734.13;5000104;28;20639;-54
2022/12/23 07:25:44;;;;;;;154.60;58.60;;;;;;;2.16;82.82;96811.72;4983972;28;20112;-54
2022/12/23 07:28:11;;;;;;;84.50;37.40;;;;;;;2.30;83.11;96793.22;4984260;28;20407;-56
2022/12/23 07:30:37;;;;;;;62.28;27.77;;;;;;;2.59;81.92;96820.69;4988600;28;20089;-54
2022/12/23 07:33:04;;;;;;;59.85;28.83;;;;;;;3.03;82.12;96825.72;4983937;28;20300;-65
2022/12/23 07:35:31;;;;;;;36.28;19.02;;;;;;;2.97;79.35;96810.59;4983883;28;20054;-66
2022/12/23 07:37:57;;;;;;;43.78;19.73;;;;;;;2.96;80.00;96809.78;4991934;28;20143;-62
2022/12/23 07:40:25;;;;;;;39.72;20.20;;;;;;;3.17;80.08;96826.28;5000695;28;20496;-61
2022/12/23 07:42:57;;;;;;;44.45;23.83;;;;;;;3.27;79.10;96825.94;5001157;28;20054;-54
2022/12/23 07:45:25;;;;;;;34.28;18.05;;;;;;;2.85;79.41;96747.56;4998488;28;20053;-73
2022/12/23 07:47:55;;;;;;;51.25;24.25;;;;;;;3.17;79.01;96765.28;5003489;28;20089;-56
2022/12/23 07:50:22;;;;;;;107.72;63.70;;;;;;;3.53;78.52;96817.56;4999405;28;20053;-54
2022/12/23 07:52:50;;;;;;;69.95;38.88;;;;;;;3.61;77.40;96820.28;4984270;28;20050;-54
2022/12/23 07:55:16;;;;;;;56.33;26.23;;;;;;;3.69;76.87;96827.63;4988434;28;20041;-59
2022/12/23 07:57:47;;;;;;;44.85;20.60;;;;;;;3.74;76.46;96830.19;4984421;28;20131;-59
2022/12/23 08:00:14;;;;;;;41.78;19.92;;;;;;;3.30;76.40;96754.13;4990750;28;20432;-55
2022/12/23 08:02:41;;;;;;;32.88;18.05;;;;;;;3.83;76.07;96828.19;4983450;28;20053;-55
2022/12/23 08:05:09;;;;;;;30.23;15.57;;;;;;;3.70;74.91;96770.94;4998983;28;20133;-64
2022/12/23 08:07:35;;;;;;;29.40;14.75;;;;;;;4.12;74.88;96808.97;5003881;28;20046;-55
2022/12/23 08:10:03;;;;;;;25.75;12.23;;;;;;;3.92;73.68;96727.56;5003123;28;20050;-58
2022/12/23 08:12:30;;;;;;;27.98;15.05;;;;;;;4.60;73.65;96814.66;5001215;28;20137;-58
2022/12/23 08:14:57;;;;;;;25.02;12.77;;;;;;;4.60;72.81;96781.75;5004083;28;20060;-70
2022/12/23 08:17:28;;;;;;;31.30;15.80;;;;;;;5.00;71.33;96822.31;5003109;28;20557;-60
2022/12/23 08:19:56;;;;;;;34.22;17.05;;;;;;;4.73;71.90;96757.88;5004692;28;20567;-58
2022/12/23 08:22:23;;;;;;;39.92;18.95;;;;;;;5.20;72.20;96815.97;5006915;28;20116;-57
2022/12/23 08:24:49;;;;;;;35.97;17.08;;;;;;;5.23;74.43;96823.50;5006898;28;20112;-63
2022/12/23 08:27:16;;;;;;;35.95;17.40;;;;;;;4.94;74.02;96769.59;4991356;28;20058;-56
2022/12/23 08:29:43;;;;;;;39.90;18.88;;;;;;;5.17;73.92;96792.72;4994450;28;20050;-58
2022/12/23 08:32:10;;;;;;;35.90;17.90;;;;;;;5.40;73.80;96815.88;5006706;28;20113;-54
2022/12/23 08:34:36;;;;;;;40.00;18.40;;;;;;;5.42;72.92;96819.06;5004113;28;20053;-55
2022/12/23 08:37:03;;;;;;;30.92;16.65;;;;;;;4.03;77.77;96739.72;4985483;28;20050;-56
2022/12/23 08:39:30;;;;;;;35.70;16.95;;;;;;;5.17;76.46;96813.91;4986517;28;20089;-69
2022/12/23 08:41:56;;;;;;;25.40;14.18;;;;;;;5.35;73.62;96823.50;4986444;28;20062;-56
2022/12/23 08:44:26;;;;;;;23.20;13.93;;;;;;;5.53;72.54;96808.44;4989314;28;20077;-64
2022/12/23 08:46:53;;;;;;;20.33;10.50;;;;;;;4.86;69.13;96743.06;5006685;28;20058;-62
2022/12/23 08:49:20;;;;;;;21.15;11.55;;;;;;;4.45;72.27;96768.69;5006328;28;20592;-57
2022/12/23 08:51:47;;;;;;;23.65;12.68;;;;;;;4.74;72.04;96791.63;5003736;28;20077;-61
2022/12/23 08:54:14;;;;;;;33.80;17.05;;;;;;;5.27;71.70;96816.19;5006249;28;20053;-56
2022/12/23 08:56:42;;;;;;;30.52;16.10;;;;;;;5.70;71.81;96809.00;4988880;28;20058;-56
2022/12/23 08:59:13;;;;;;;38.85;20.63;;;;;;;6.08;70.33;96803.13;4987343;28;20046;-57
2022/12/23 09:01:45;;;;;;;33.85;19.80;;;;;;;6.22;68.99;96769.72;4985895;28;20165;-68
2022/12/23 09:04:12;;;;;;;24.42;15.02;;;;;;;6.61;68.20;96777.94;4986479;28;20109;-65
2022/12/23 09:06:41;;;;;;;26.10;15.93;;;;;;;7.02;65.74;96788.50;4991360;28;20086;-54
2022/12/23 09:09:10;;;;;;;30.55;15.60;;;;;;;7.25;62.69;96784.00;5004138;28;20597;-59
2022/12/23 09:11:37;;;;;;;41.28;20.42;;;;;;;6.95;61.19;96719.50;4993513;28;20069;-56
2022/12/23 09:14:05;;;;;;;25.92;13.07;;;;;;;7.34;60.08;96762.59;4986605;28;20085;-55
2022/12/23 09:16:32;;;;;;;19.85;10.73;;;;;;;7.64;60.24;96776.69;4985786;28;20053;-58
2022/12/23 09:18:58;;;;;;;26.25;12.23;;;;;;;7.43;60.39;96743.91;4996351;28;20872;-62
2022/12/23 09:21:25;;;;;;;16.60;9.40;;;;;;;7.92;59.54;96771.03;4997590;28;20540;-56
2022/12/23 09:23:52;;;;;;;17.75;8.52;;;;;;;8.10;58.28;96767.50;4991976;28;20140;-57
2022/12/23 09:26:27;;;;;;;81.57;32.83;;;;;;;8.03;59.04;96750.00;4991025;28;20062;-55
2022/12/23 09:28:55;;;;;;;202.13;84.07;;;;;;;8.23;58.50;96759.94;4986792;28;20054;-55
2022/12/23 09:31:22;;;;;;;49.47;24.63;;;;;;;7.99;59.04;96694.78;5003882;28;20081;-56
2022/12/23 09:33:52;;;;;;;48.35;23.98;;;;;;;8.65;59.29;96760.78;5003993;28;20054;-57
2022/12/23 09:36:19;;;;;;;25.73;14.20;;;;;;;8.92;58.82;96748.69;5004809;28;20132;-58
2022/12/23 09:38:46;;;;;;;27.73;16.17;;;;;;;9.13;57.46;96760.13;5003824;28;20093;-68
2022/12/23 09:41:18;;;;;;;22.73;13.13;;;;;;;9.43;56.56;96758.28;4992744;28;20064;-58
2022/12/23 09:44:21;;;;;;;26.80;14.02;;;;;;;9.73;55.85;96750.88;4985782;28;20150;-61
2022/12/23 09:47:03;;;;;;;20.45;11.60;;;;;;;9.89;55.04;96732.16;4999994;28;20104;-57
2022/12/23 09:49:32;;;;;;;25.75;13.88;;;;;;;9.65;52.49;96663.44;5004044;28;20104;-56
2022/12/23 09:52:03;;;;;;;19.25;11.25;;;;;;;10.36;52.66;96745.47;5000650;28;20058;-61
2022/12/23 09:55:00;;;;;;;14.82;6.85;;;;;;;10.51;49.27;96748.03;4984044;28;20610;-68
2022/12/23 09:57:47;;;;;;;19.52;9.50;;;;;;;10.01;49.83;96671.03;5008060;28;20054;-65
2022/12/23 10:00:15;;;;;;;21.67;11.68;;;;;;;8.17;50.75;96353.09;4998439;28;20082;-71
2022/12/23 10:03:10;;;;;;;26.20;12.35;;;;;;;10.82;49.86;96740.47;4989475;28;20137;-56
2022/12/23 10:05:59;;;;;;;102.75;49.20;;;;;;;10.79;49.10;96744.81;4989395;28;20085;-66
2022/12/23 10:08:31;;;;;;;31.77;13.20;;;;;;;10.79;49.18;96741.22;4991581;28;20061;-56
2022/12/23 10:11:24;;;;;;;21.33;12.25;;;;;;;10.97;46.86;96736.69;5003167;28;20147;-55
2022/12/23 10:14:02;;;;;;;28.70;17.50;;;;;;;11.11;47.56;96725.75;4998204;28;20691;-56
2022/12/23 10:16:38;;;;;;;29.80;18.30;;;;;;;11.21;47.48;96702.84;4999100;28;20524;-72
2022/12/23 10:19:25;;;;;;;26.85;13.93;;;;;;;11.37;47.23;96700.63;5001086;28;20089;-75
2022/12/23 10:21:59;;;;;;;41.35;27.15;;;;;;;11.21;46.65;96680.69;5003471;28;20406;-69
2022/12/23 10:24:34;;;;;;;19.25;12.85;;;;;;;11.56;47.21;96703.97;5003110;28;20084;-67
2022/12/23 10:27:22;;;;;;;43.25;26.05;;;;;;;11.62;49.30;96704.38;4998323;28;20086;-66
2022/12/23 10:29:49;;;;;;;27.73;17.48;;;;;;;11.80;49.17;96702.56;4986258;28;20085;-59
2022/12/23 10:32:15;;;;;;;30.02;16.40;;;;;;;11.95;48.76;96704.25;5004262;28;20584;-69
2022/12/23 10:35:14;;;;;;;25.83;15.00;;;;;;;11.97;48.33;96702.69;4984460;28;20050;-65
2022/12/23 10:37:54;;;;;;;54.15;29.23;;;;;;;11.81;48.35;96648.66;4984717;28;20112;-56
2022/12/23 10:40:40;;;;;;;15.90;9.32;;;;;;;12.13;47.12;96691.25;4987762;28;20608;-58
2022/12/23 10:43:38;;;;;;;47.25;30.15;;;;;;;12.14;48.25;96662.31;4984807;28;20050;-54
2022/12/23 10:46:56;;;;;;;44.53;28.02;;;;;;;12.31;47.24;96672.72;4987643;28;20576;-56
2022/12/23 10:49:28;;;;;;;50.65;31.45;;;;;;;12.51;46.87;96679.53;4984696;28;20125;-56
2022/12/23 10:52:02;;;;;;;36.17;19.92;;;;;;;12.71;44.38;96697.44;5003115;28;20513;-56
2022/12/23 10:54:33;;;;;;;22.80;13.32;;;;;;;12.64;45.39;96683.56;5004335;28;20168;-56
2022/12/23 10:57:03;;;;;;;16.83;10.18;;;;;;;12.84;45.26;96682.00;4985020;28;20050;-68
2022/12/23 10:59:34;;;;;;;11.13;6.72;;;;;;;12.60;43.67;96702.19;4984554;28;20547;-63
2022/12/23 11:02:11;;;;;;;10.80;6.80;;;;;;;12.12;44.24;96681.34;4989190;28;20476;-56
2022/12/23 11:04:43;;;;;;;14.60;7.53;;;;;;;11.88;45.73;96651.47;4992762;28;20050;-56
2022/12/23 11:07:17;;;;;;;33.03;13.35;;;;;;;12.25;44.36;96679.81;4990120;28;20077;-56
2022/12/23 11:10:12;;;;;;;14.32;7.28;;;;;;;12.52;42.96;96672.78;5003748;28;20046;-55
2022/12/23 11:12:41;;;;;;;11.02;8.40;;;;;;;12.71;42.82;96675.22;5004125;28;20432;-61
2022/12/23 11:15:37;;;;;;;10.25;6.70;;;;;;;12.72;42.14;96671.28;4994885;28;20128;-54
2022/12/23 11:18:13;;;;;;;28.70;14.18;;;;;;;12.40;43.89;96664.81;5001580;28;20053;-54
2022/12/23 11:20:42;;;;;;;28.38;14.38;;;;;;;12.30;41.73;96685.00;5002731;28;20092;-55
2022/12/23 11:23:34;;;;;;;10.02;6.05;;;;;;;12.13;41.59;96616.31;5001487;28;20086;-63
2022/12/23 11:26:05;;;;;;;8.50;5.87;;;;;;;12.35;41.44;96656.84;4994487;28;20057;-55
2022/12/23 11:28:36;;;;;;;16.48;8.30;;;;;;;11.99;40.90;96605.16;5003010;28;20698;-61
2022/12/23 11:31:10;;;;;;;7.65;5.15;;;;;;;12.40;40.87;96664.00;4999909;28;20116;-58
2022/12/23 11:33:44;;;;;;;5.97;4.15;;;;;;;12.57;40.46;96630.72;4993080;28;20060;-61
2022/12/23 11:36:10;;;;;;;;;;;;;;;12.85;39.98;96660.59;4985671;28;20093;-59
2022/12/23 11:38:51;;;;;;;7.85;5.43;;;;;;;12.85;40.88;96658.56;4984970;28;19926;-56
2022/12/23 11:41:32;;;;;;;9.80;7.25;;;;;;;12.89;41.26;96651.06;4985568;28;20082;-69
2022/12/23 11:44:17;;;;;;;12.23;8.35;;;;;;;13.21;40.86;96648.34;4984214;28;20394;-61
2022/12/23 11:46:44;;;;;;;12.82;7.13;;;;;;;13.38;41.11;96642.78;4983923;28;20047;-61
2022/12/23 11:49:25;;;;;;;8.52;5.53;;;;;;;13.40;39.96;96642.38;4983889;28;20564;-61
2022/12/23 11:52:00;;;;;;;18.20;10.02;;;;;;;13.24;40.81;96620.53;4984335;28;20078;-61
2022/12/23 11:54:27;;;;;;;20.90;10.57;;;;;;;13.32;41.02;96626.88;4442891;28;5002402;-56
2022/12/23 11:56:54;;;;;;;13.38;10.30;;;;;;;12.54;42.99;96537.06;4992776;28;20459;-60
2022/12/23 11:59:32;;;;;;;13.73;10.13;;;;;;;12.82;43.90;96620.47;4995200;28;20108;-60
2022/12/23 12:02:02;;;;;;;23.58;15.10;;;;;;;12.61;45.54;96614.06;4997182;28;20054;-57
2022/12/23 12:04:33;;;;;;;14.32;9.23;;;;;;;12.57;45.39;96625.16;5000555;28;20521;-55
2022/12/23 12:07:02;;;;;;;11.88;8.48;;;;;;;12.51;44.76;96604.53;4998043;28;20060;-62
2022/12/23 12:09:30;;;;;;;12.75;7.60;;;;;;;12.37;44.28;96575.91;4990073;28;20165;-58
2022/12/23 12:12:13;;;;;;;15.57;8.68;;;;;;;12.86;43.46;96615.72;4989932;28;20053;-62
2022/12/23 12:14:47;;;;;;;10.98;8.15;;;;;;;12.86;41.36;96629.59;4992531;28;20081;-60
2022/12/23 12:17:20;;;;;;;13.50;7.25;;;;;;;12.90;43.51;96630.41;5003158;28;20747;-57